TimeHST,TemperatureF,Dew PointF,Humidity,Sea Level PressureIn,VisibilityMPH,Wind Direction,Wind SpeedMPH,Gust SpeedMPH,PrecipitationIn,Events,Conditions,WindDirDegrees,DateUTC
12:53 AM,79.0,66.0,64,30.05,10.0,East,10.4,-,N/A,,Scattered Clouds,80,2013-09-09 10:53:00
1:53 AM,78.1,66.0,66,30.04,10.0,ENE,5.8,-,N/A,,Mostly Cloudy,60,2013-09-09 11:53:00
2:53 AM,75.9,66.9,74,30.03,10.0,NE,5.8,-,N/A,,Scattered Clouds,40,2013-09-09 12:53:00
3:53 AM,77.0,66.9,71,30.02,10.0,ENE,6.9,-,N/A,,Scattered Clouds,70,2013-09-09 13:53:00
4:53 AM,75.9,66.0,71,30.02,10.0,ENE,9.2,-,N/A,,Scattered Clouds,70,2013-09-09 14:53:00
5:53 AM,75.9,66.0,71,30.03,10.0,East,6.9,-,N/A,,Scattered Clouds,90,2013-09-09 15:53:00
6:53 AM,77.0,64.9,66,30.04,10.0,ENE,10.4,-,N/A,,Scattered Clouds,60,2013-09-09 16:53:00
7:53 AM,80.1,64.9,60,30.05,10.0,ENE,10.4,16.1,N/A,,Scattered Clouds,70,2013-09-09 17:53:00
8:53 AM,82.0,63.0,52,30.06,10.0,ENE,17.3,23.0,N/A,,Scattered Clouds,70,2013-09-09 18:53:00
9:53 AM,84.0,63.0,49,30.06,10.0,NE,16.1,-,N/A,,Scattered Clouds,50,2013-09-09 19:53:00
10:53 AM,86.0,64.0,48,30.06,10.0,NE,16.1,-,N/A,,Scattered Clouds,50,2013-09-09 20:53:00
11:53 AM,86.0,64.0,48,30.04,10.0,NE,15.0,28.8,N/A,,Scattered Clouds,50,2013-09-09 21:53:00
12:53 PM,89.1,64.0,43,30.02,10.0,ENE,19.6,23.0,N/A,,Scattered Clouds,60,2013-09-09 22:53:00
1:53 PM,89.1,62.1,40,30.01,10.0,NE,12.7,23.0,N/A,,Partly Cloudy,40,2013-09-09 23:53:00
2:53 PM,88.0,60.1,39,30.00,10.0,NNE,17.3,25.3,N/A,,Partly Cloudy,30,2013-09-10 00:53:00
3:53 PM,86.0,62.1,44,30.00,10.0,NNE,16.1,-,N/A,,Partly Cloudy,30,2013-09-10 01:53:00
4:53 PM,84.0,64.0,51,30.01,10.0,NE,15.0,24.2,N/A,,Partly Cloudy,50,2013-09-10 02:53:00
5:53 PM,82.0,62.1,51,30.03,10.0,NE,12.7,20.7,N/A,,Partly Cloudy,50,2013-09-10 03:53:00
6:53 PM,80.1,64.0,58,30.05,10.0,NE,12.7,-,N/A,,Partly Cloudy,50,2013-09-10 04:53:00
7:53 PM,79.0,64.9,62,30.06,10.0,NE,10.4,-,N/A,,Partly Cloudy,50,2013-09-10 05:53:00
8:53 PM,78.1,64.9,64,30.08,10.0,NNE,9.2,-,N/A,,Partly Cloudy,30,2013-09-10 06:53:00
9:53 PM,78.1,66.0,66,30.09,10.0,NE,9.2,-,N/A,,Partly Cloudy,40,2013-09-10 07:53:00
10:53 PM,78.1,64.9,64,30.08,10.0,NNE,6.9,-,N/A,,Partly Cloudy,30,2013-09-10 08:53:00
11:53 PM,77.0,64.9,66,30.07,10.0,ENE,10.4,-,N/A,,Partly Cloudy,60,2013-09-10 09:53:00